<?xml version="1.0" encoding="UTF-8" standalone="no" ?>
<gpx xmlns="http://www.topografix.com/GPX/1/1" xmlns:xsi="http://www.w3.org/2001/XMLSchema-instance" xsi:schemaLocation="http://www.topografix.com/GPX/1/1 http://www.topografix.com/GPX/1/1/gpx.xsd" version="1.1" creator="VisuGPX - https://www.visugpx.com">
  <metadata>
    <name>rando lanquais 10042014</name>
    <desc><![CDATA[rando lanquais 10042014]]></desc>
  </metadata>
  <trk>
    <name><![CDATA[rando lanquais 10042014_1]]></name>
    <trkseg>
      <trkpt lat="44.82066" lon="0.67301">
        <ele>51</ele>
        <time>2014-04-10T12:24:33.000Z</time>
      </trkpt>
      <trkpt lat="44.82064" lon="0.67324">
        <ele>62</ele>
        <time>2014-04-10T12:25:21.000Z</time>
      </trkpt>
      <trkpt lat="44.82064" lon="0.67324">
        <ele>62</ele>
        <time>2014-04-10T12:25:23.000Z</time>
      </trkpt>
      <trkpt lat="44.82064" lon="0.67324">
        <ele>62</ele>
        <time>2014-04-10T12:25:25.000Z</time>
      </trkpt>
      <trkpt lat="44.82064" lon="0.67324">
        <ele>62</ele>
        <time>2014-04-10T12:25:27.000Z</time>
      </trkpt>
      <trkpt lat="44.82064" lon="0.67324">
        <ele>62</ele>
        <time>2014-04-10T12:25:29.000Z</time>
      </trkpt>
      <trkpt lat="44.82053" lon="0.67329">
        <ele>54</ele>
        <time>2014-04-10T12:25:35.000Z</time>
      </trkpt>
      <trkpt lat="44.82053" lon="0.67329">
        <ele>54</ele>
        <time>2014-04-10T12:25:41.000Z</time>
      </trkpt>
      <trkpt lat="44.82053" lon="0.67329">
        <ele>54</ele>
        <time>2014-04-10T12:25:43.000Z</time>
      </trkpt>
      <trkpt lat="44.82053" lon="0.67329">
        <ele>54</ele>
        <time>2014-04-10T12:25:45.000Z</time>
      </trkpt>
      <trkpt lat="44.82053" lon="0.67329">
        <ele>54</ele>
        <time>2014-04-10T12:25:49.000Z</time>
      </trkpt>
      <trkpt lat="44.82047" lon="0.67335">
        <ele>41</ele>
        <time>2014-04-10T12:25:57.000Z</time>
      </trkpt>
      <trkpt lat="44.82043" lon="0.67339">
        <ele>40</ele>
        <time>2014-04-10T12:25:59.000Z</time>
      </trkpt>
      <trkpt lat="44.82043" lon="0.67339">
        <ele>40</ele>
        <time>2014-04-10T12:26:01.000Z</time>
      </trkpt>
      <trkpt lat="44.82043" lon="0.67339">
        <ele>40</ele>
        <time>2014-04-10T12:26:03.000Z</time>
      </trkpt>
      <trkpt lat="44.82043" lon="0.67339">
        <ele>40</ele>
        <time>2014-04-10T12:26:05.000Z</time>
      </trkpt>
      <trkpt lat="44.82043" lon="0.67339">
        <ele>40</ele>
        <time>2014-04-10T12:26:07.000Z</time>
      </trkpt>
      <trkpt lat="44.82043" lon="0.67339">
        <ele>40</ele>
        <time>2014-04-10T12:26:09.000Z</time>
      </trkpt>
      <trkpt lat="44.82043" lon="0.67339">
        <ele>40</ele>
        <time>2014-04-10T12:26:11.000Z</time>
      </trkpt>
      <trkpt lat="44.82043" lon="0.67339">
        <ele>40</ele>
        <time>2014-04-10T12:26:13.000Z</time>
      </trkpt>
      <trkpt lat="44.82043" lon="0.67339">
        <ele>40</ele>
        <time>2014-04-10T12:26:15.000Z</time>
      </trkpt>
      <trkpt lat="44.82032" lon="0.67342">
        <ele>49</ele>
        <time>2014-04-10T12:26:23.000Z</time>
      </trkpt>
      <trkpt lat="44.82032" lon="0.67342">
        <ele>49</ele>
        <time>2014-04-10T12:26:25.000Z</time>
      </trkpt>
      <trkpt lat="44.82032" lon="0.67342">
        <ele>49</ele>
        <time>2014-04-10T12:26:27.000Z</time>
      </trkpt>
      <trkpt lat="44.82032" lon="0.67342">
        <ele>49</ele>
        <time>2014-04-10T12:26:29.000Z</time>
      </trkpt>
      <trkpt lat="44.82032" lon="0.67342">
        <ele>49</ele>
        <time>2014-04-10T12:26:31.000Z</time>
      </trkpt>
      <trkpt lat="44.82032" lon="0.67342">
        <ele>49</ele>
        <time>2014-04-10T12:26:41.000Z</time>
      </trkpt>
      <trkpt lat="44.82032" lon="0.67342">
        <ele>49</ele>
        <time>2014-04-10T12:26:43.000Z</time>
      </trkpt>
      <trkpt lat="44.82032" lon="0.67342">
        <ele>49</ele>
        <time>2014-04-10T12:26:45.000Z</time>
      </trkpt>
      <trkpt lat="44.82032" lon="0.67342">
        <ele>49</ele>
        <time>2014-04-10T12:26:47.000Z</time>
      </trkpt>
      <trkpt lat="44.82032" lon="0.67342">
        <ele>49</ele>
        <time>2014-04-10T12:26:55.000Z</time>
      </trkpt>
      <trkpt lat="44.82032" lon="0.67342">
        <ele>49</ele>
        <time>2014-04-10T12:26:57.000Z</time>
      </trkpt>
      <trkpt lat="44.8198" lon="0.67366">
        <ele>78</ele>
        <time>2014-04-10T12:27:43.000Z</time>
      </trkpt>
      <trkpt lat="44.8198" lon="0.67366">
        <ele>78</ele>
        <time>2014-04-10T12:27:45.000Z</time>
      </trkpt>
      <trkpt lat="44.81961" lon="0.67382">
        <ele>86</ele>
        <time>2014-04-10T12:27:57.000Z</time>
      </trkpt>
      <trkpt lat="44.81961" lon="0.67382">
        <ele>86</ele>
        <time>2014-04-10T12:27:59.000Z</time>
      </trkpt>
      <trkpt lat="44.81961" lon="0.67382">
        <ele>86</ele>
        <time>2014-04-10T12:28:02.000Z</time>
      </trkpt>
      <trkpt lat="44.81961" lon="0.67382">
        <ele>86</ele>
        <time>2014-04-10T12:28:04.000Z</time>
      </trkpt>
      <trkpt lat="44.81961" lon="0.67382">
        <ele>86</ele>
        <time>2014-04-10T12:28:06.000Z</time>
      </trkpt>
      <trkpt lat="44.81961" lon="0.67382">
        <ele>86</ele>
        <time>2014-04-10T12:28:08.000Z</time>
      </trkpt>
      <trkpt lat="44.81961" lon="0.67382">
        <ele>86</ele>
        <time>2014-04-10T12:28:10.000Z</time>
      </trkpt>
      <trkpt lat="44.81962" lon="0.67364">
        <ele>68</ele>
        <time>2014-04-10T12:28:23.000Z</time>
      </trkpt>
      <trkpt lat="44.81962" lon="0.67364">
        <ele>68</ele>
        <time>2014-04-10T12:28:25.000Z</time>
      </trkpt>
      <trkpt lat="44.81962" lon="0.67364">
        <ele>68</ele>
        <time>2014-04-10T12:28:35.000Z</time>
      </trkpt>
      <trkpt lat="44.81962" lon="0.67364">
        <ele>68</ele>
        <time>2014-04-10T12:28:45.000Z</time>
      </trkpt>
      <trkpt lat="44.81962" lon="0.67364">
        <ele>68</ele>
        <time>2014-04-10T12:28:47.000Z</time>
      </trkpt>
      <trkpt lat="44.81948" lon="0.67399">
        <ele>82</ele>
        <time>2014-04-10T12:29:20.000Z</time>
      </trkpt>
      <trkpt lat="44.81948" lon="0.67399">
        <ele>82</ele>
        <time>2014-04-10T12:29:22.000Z</time>
      </trkpt>
      <trkpt lat="44.81948" lon="0.67399">
        <ele>82</ele>
        <time>2014-04-10T12:29:24.000Z</time>
      </trkpt>
      <trkpt lat="44.81948" lon="0.67399">
        <ele>82</ele>
        <time>2014-04-10T12:29:26.000Z</time>
      </trkpt>
      <trkpt lat="44.81948" lon="0.67399">
        <ele>82</ele>
        <time>2014-04-10T12:29:28.000Z</time>
      </trkpt>
      <trkpt lat="44.81948" lon="0.67399">
        <ele>82</ele>
        <time>2014-04-10T12:29:32.000Z</time>
      </trkpt>
      <trkpt lat="44.81948" lon="0.67399">
        <ele>82</ele>
        <time>2014-04-10T12:29:34.000Z</time>
      </trkpt>
      <trkpt lat="44.81948" lon="0.67399">
        <ele>82</ele>
        <time>2014-04-10T12:29:36.000Z</time>
      </trkpt>
      <trkpt lat="44.81948" lon="0.67399">
        <ele>82</ele>
        <time>2014-04-10T12:29:40.000Z</time>
      </trkpt>
      <trkpt lat="44.81948" lon="0.67399">
        <ele>82</ele>
        <time>2014-04-10T12:29:42.000Z</time>
      </trkpt>
      <trkpt lat="44.819" lon="0.67427">
        <ele>59</ele>
        <time>2014-04-10T12:31:07.000Z</time>
      </trkpt>
      <trkpt lat="44.8189" lon="0.67434">
        <ele>55</ele>
        <time>2014-04-10T12:31:15.000Z</time>
      </trkpt>
      <trkpt lat="44.8189" lon="0.67434">
        <ele>55</ele>
        <time>2014-04-10T12:31:21.000Z</time>
      </trkpt>
      <trkpt lat="44.8189" lon="0.67434">
        <ele>55</ele>
        <time>2014-04-10T12:31:23.000Z</time>
      </trkpt>
      <trkpt lat="44.8189" lon="0.67434">
        <ele>55</ele>
        <time>2014-04-10T12:31:25.000Z</time>
      </trkpt>
      <trkpt lat="44.8189" lon="0.67434">
        <ele>55</ele>
        <time>2014-04-10T12:31:29.000Z</time>
      </trkpt>
      <trkpt lat="44.81877" lon="0.67441">
        <ele>46</ele>
        <time>2014-04-10T12:31:37.000Z</time>
      </trkpt>
      <trkpt lat="44.81877" lon="0.67441">
        <ele>46</ele>
        <time>2014-04-10T12:31:39.000Z</time>
      </trkpt>
      <trkpt lat="44.81877" lon="0.67441">
        <ele>46</ele>
        <time>2014-04-10T12:31:41.000Z</time>
      </trkpt>
      <trkpt lat="44.81877" lon="0.67441">
        <ele>46</ele>
        <time>2014-04-10T12:31:43.000Z</time>
      </trkpt>
      <trkpt lat="44.81866" lon="0.67438">
        <ele>47</ele>
        <time>2014-04-10T12:31:55.000Z</time>
      </trkpt>
      <trkpt lat="44.81866" lon="0.67438">
        <ele>47</ele>
        <time>2014-04-10T12:31:59.000Z</time>
      </trkpt>
      <trkpt lat="44.81866" lon="0.67438">
        <ele>47</ele>
        <time>2014-04-10T12:32:01.000Z</time>
      </trkpt>
      <trkpt lat="44.81866" lon="0.67438">
        <ele>47</ele>
        <time>2014-04-10T12:32:03.000Z</time>
      </trkpt>
      <trkpt lat="44.81857" lon="0.67438">
        <ele>51</ele>
        <time>2014-04-10T12:32:09.000Z</time>
      </trkpt>
      <trkpt lat="44.81857" lon="0.67438">
        <ele>51</ele>
        <time>2014-04-10T12:32:13.000Z</time>
      </trkpt>
      <trkpt lat="44.81857" lon="0.67438">
        <ele>51</ele>
        <time>2014-04-10T12:32:15.000Z</time>
      </trkpt>
      <trkpt lat="44.81857" lon="0.67438">
        <ele>51</ele>
        <time>2014-04-10T12:32:17.000Z</time>
      </trkpt>
      <trkpt lat="44.81852" lon="0.67439">
        <ele>54</ele>
        <time>2014-04-10T12:32:19.000Z</time>
      </trkpt>
      <trkpt lat="44.81852" lon="0.67439">
        <ele>54</ele>
        <time>2014-04-10T12:32:21.000Z</time>
      </trkpt>
      <trkpt lat="44.81852" lon="0.67439">
        <ele>54</ele>
        <time>2014-04-10T12:32:23.000Z</time>
      </trkpt>
      <trkpt lat="44.81852" lon="0.67439">
        <ele>54</ele>
        <time>2014-04-10T12:32:25.000Z</time>
      </trkpt>
      <trkpt lat="44.81852" lon="0.67439">
        <ele>54</ele>
        <time>2014-04-10T12:32:27.000Z</time>
      </trkpt>
      <trkpt lat="44.81852" lon="0.67439">
        <ele>54</ele>
        <time>2014-04-10T12:32:29.000Z</time>
      </trkpt>
      <trkpt lat="44.81827" lon="0.67437">
        <ele>49</ele>
        <time>2014-04-10T12:33:41.000Z</time>
      </trkpt>
      <trkpt lat="44.81815" lon="0.67448">
        <ele>59</ele>
        <time>2014-04-10T12:33:57.000Z</time>
      </trkpt>
      <trkpt lat="44.81815" lon="0.67448">
        <ele>59</ele>
        <time>2014-04-10T12:33:59.000Z</time>
      </trkpt>
      <trkpt lat="44.81815" lon="0.67448">
        <ele>59</ele>
        <time>2014-04-10T12:34:09.000Z</time>
      </trkpt>
      <trkpt lat="44.81815" lon="0.67448">
        <ele>59</ele>
        <time>2014-04-10T12:34:11.000Z</time>
      </trkpt>
      <trkpt lat="44.81815" lon="0.67448">
        <ele>59</ele>
        <time>2014-04-10T12:34:13.000Z</time>
      </trkpt>
      <trkpt lat="44.81815" lon="0.67448">
        <ele>59</ele>
        <time>2014-04-10T12:34:15.000Z</time>
      </trkpt>
      <trkpt lat="44.81796" lon="0.6745">
        <ele>53</ele>
        <time>2014-04-10T12:34:39.000Z</time>
      </trkpt>
      <trkpt lat="44.81761" lon="0.67412">
        <ele>47</ele>
        <time>2014-04-10T12:37:13.000Z</time>
      </trkpt>
      <trkpt lat="44.81761" lon="0.67412">
        <ele>47</ele>
        <time>2014-04-10T12:37:15.000Z</time>
      </trkpt>
      <trkpt lat="44.81761" lon="0.67412">
        <ele>47</ele>
        <time>2014-04-10T12:37:17.000Z</time>
      </trkpt>
      <trkpt lat="44.81761" lon="0.67412">
        <ele>47</ele>
        <time>2014-04-10T12:37:21.000Z</time>
      </trkpt>
      <trkpt lat="44.81761" lon="0.67412">
        <ele>47</ele>
        <time>2014-04-10T12:37:27.000Z</time>
      </trkpt>
      <trkpt lat="44.81761" lon="0.67412">
        <ele>47</ele>
        <time>2014-04-10T12:37:29.000Z</time>
      </trkpt>
      <trkpt lat="44.81761" lon="0.67412">
        <ele>47</ele>
        <time>2014-04-10T12:37:33.000Z</time>
      </trkpt>
      <trkpt lat="44.81761" lon="0.67412">
        <ele>47</ele>
        <time>2014-04-10T12:37:37.000Z</time>
      </trkpt>
      <trkpt lat="44.81761" lon="0.67412">
        <ele>47</ele>
        <time>2014-04-10T12:37:41.000Z</time>
      </trkpt>
      <trkpt lat="44.81761" lon="0.67412">
        <ele>47</ele>
        <time>2014-04-10T12:37:43.000Z</time>
      </trkpt>
      <trkpt lat="44.81761" lon="0.67412">
        <ele>47</ele>
        <time>2014-04-10T12:37:45.000Z</time>
      </trkpt>
      <trkpt lat="44.81761" lon="0.67412">
        <ele>47</ele>
        <time>2014-04-10T12:38:17.000Z</time>
      </trkpt>
      <trkpt lat="44.81717" lon="0.67409">
        <ele>40</ele>
        <time>2014-04-10T12:38:25.000Z</time>
      </trkpt>
      <trkpt lat="44.81717" lon="0.67409">
        <ele>40</ele>
        <time>2014-04-10T12:38:27.000Z</time>
      </trkpt>
      <trkpt lat="44.81717" lon="0.67409">
        <ele>40</ele>
        <time>2014-04-10T12:38:29.000Z</time>
      </trkpt>
      <trkpt lat="44.81717" lon="0.67409">
        <ele>40</ele>
        <time>2014-04-10T12:38:31.000Z</time>
      </trkpt>
      <trkpt lat="44.81717" lon="0.67409">
        <ele>40</ele>
        <time>2014-04-10T12:38:33.000Z</time>
      </trkpt>
      <trkpt lat="44.81671" lon="0.67396">
        <ele>26</ele>
        <time>2014-04-10T12:40:05.000Z</time>
      </trkpt>
      <trkpt lat="44.81671" lon="0.67396">
        <ele>26</ele>
        <time>2014-04-10T12:40:15.000Z</time>
      </trkpt>
      <trkpt lat="44.81671" lon="0.67396">
        <ele>26</ele>
        <time>2014-04-10T12:40:17.000Z</time>
      </trkpt>
      <trkpt lat="44.81671" lon="0.67396">
        <ele>26</ele>
        <time>2014-04-10T12:40:19.000Z</time>
      </trkpt>
      <trkpt lat="44.81671" lon="0.67396">
        <ele>26</ele>
        <time>2014-04-10T12:40:23.000Z</time>
      </trkpt>
      <trkpt lat="44.81671" lon="0.67396">
        <ele>26</ele>
        <time>2014-04-10T12:40:25.000Z</time>
      </trkpt>
      <trkpt lat="44.81632" lon="0.67383">
        <ele>34</ele>
        <time>2014-04-10T12:41:02.000Z</time>
      </trkpt>
      <trkpt lat="44.81632" lon="0.67383">
        <ele>34</ele>
        <time>2014-04-10T12:41:12.000Z</time>
      </trkpt>
      <trkpt lat="44.81632" lon="0.67383">
        <ele>34</ele>
        <time>2014-04-10T12:41:14.000Z</time>
      </trkpt>
      <trkpt lat="44.81632" lon="0.67383">
        <ele>34</ele>
        <time>2014-04-10T12:41:16.000Z</time>
      </trkpt>
      <trkpt lat="44.81594" lon="0.6737">
        <ele>41</ele>
        <time>2014-04-10T12:42:00.000Z</time>
      </trkpt>
      <trkpt lat="44.81594" lon="0.6737">
        <ele>41</ele>
        <time>2014-04-10T12:42:02.000Z</time>
      </trkpt>
      <trkpt lat="44.81594" lon="0.6737">
        <ele>41</ele>
        <time>2014-04-10T12:42:04.000Z</time>
      </trkpt>
      <trkpt lat="44.81584" lon="0.67366">
        <ele>38</ele>
        <time>2014-04-10T12:42:10.000Z</time>
      </trkpt>
      <trkpt lat="44.81584" lon="0.67366">
        <ele>38</ele>
        <time>2014-04-10T12:42:12.000Z</time>
      </trkpt>
      <trkpt lat="44.81584" lon="0.67366">
        <ele>38</ele>
        <time>2014-04-10T12:42:14.000Z</time>
      </trkpt>
      <trkpt lat="44.81584" lon="0.67366">
        <ele>38</ele>
        <time>2014-04-10T12:42:16.000Z</time>
      </trkpt>
      <trkpt lat="44.81584" lon="0.67366">
        <ele>38</ele>
        <time>2014-04-10T12:42:20.000Z</time>
      </trkpt>
      <trkpt lat="44.8156" lon="0.67361">
        <ele>55</ele>
        <time>2014-04-10T12:43:17.000Z</time>
      </trkpt>
      <trkpt lat="44.8156" lon="0.67361">
        <ele>55</ele>
        <time>2014-04-10T12:43:31.000Z</time>
      </trkpt>
      <trkpt lat="44.8156" lon="0.67361">
        <ele>55</ele>
        <time>2014-04-10T12:43:33.000Z</time>
      </trkpt>
      <trkpt lat="44.81551" lon="0.67333">
        <ele>43</ele>
        <time>2014-04-10T12:43:47.000Z</time>
      </trkpt>
      <trkpt lat="44.81551" lon="0.67333">
        <ele>43</ele>
        <time>2014-04-10T12:43:51.000Z</time>
      </trkpt>
      <trkpt lat="44.81561" lon="0.67332">
        <ele>45</ele>
        <time>2014-04-10T12:44:05.000Z</time>
      </trkpt>
      <trkpt lat="44.81561" lon="0.67332">
        <ele>45</ele>
        <time>2014-04-10T12:44:07.000Z</time>
      </trkpt>
      <trkpt lat="44.81561" lon="0.67332">
        <ele>45</ele>
        <time>2014-04-10T12:44:09.000Z</time>
      </trkpt>
      <trkpt lat="44.81561" lon="0.67332">
        <ele>45</ele>
        <time>2014-04-10T12:44:11.000Z</time>
      </trkpt>
      <trkpt lat="44.81561" lon="0.67332">
        <ele>45</ele>
        <time>2014-04-10T12:44:13.000Z</time>
      </trkpt>
      <trkpt lat="44.81572" lon="0.6732">
        <ele>49</ele>
        <time>2014-04-10T12:44:21.000Z</time>
      </trkpt>
      <trkpt lat="44.81572" lon="0.6732">
        <ele>49</ele>
        <time>2014-04-10T12:44:23.000Z</time>
      </trkpt>
      <trkpt lat="44.81572" lon="0.6732">
        <ele>49</ele>
        <time>2014-04-10T12:44:25.000Z</time>
      </trkpt>
      <trkpt lat="44.81572" lon="0.6732">
        <ele>49</ele>
        <time>2014-04-10T12:44:27.000Z</time>
      </trkpt>
      <trkpt lat="44.81572" lon="0.6732">
        <ele>49</ele>
        <time>2014-04-10T12:44:37.000Z</time>
      </trkpt>
      <trkpt lat="44.81587" lon="0.67308">
        <ele>48</ele>
        <time>2014-04-10T12:44:57.000Z</time>
      </trkpt>
      <trkpt lat="44.81587" lon="0.67308">
        <ele>48</ele>
        <time>2014-04-10T12:45:03.000Z</time>
      </trkpt>
      <trkpt lat="44.81587" lon="0.67308">
        <ele>48</ele>
        <time>2014-04-10T12:45:05.000Z</time>
      </trkpt>
      <trkpt lat="44.81601" lon="0.67304">
        <ele>50</ele>
        <time>2014-04-10T12:45:25.000Z</time>
      </trkpt>
      <trkpt lat="44.81601" lon="0.67304">
        <ele>50</ele>
        <time>2014-04-10T12:45:27.000Z</time>
      </trkpt>
      <trkpt lat="44.81601" lon="0.67304">
        <ele>50</ele>
        <time>2014-04-10T12:45:29.000Z</time>
      </trkpt>
      <trkpt lat="44.81601" lon="0.67304">
        <ele>50</ele>
        <time>2014-04-10T12:45:41.000Z</time>
      </trkpt>
      <trkpt lat="44.81601" lon="0.67304">
        <ele>50</ele>
        <time>2014-04-10T12:45:43.000Z</time>
      </trkpt>
      <trkpt lat="44.81601" lon="0.67304">
        <ele>50</ele>
        <time>2014-04-10T12:45:51.000Z</time>
      </trkpt>
      <trkpt lat="44.81601" lon="0.67304">
        <ele>50</ele>
        <time>2014-04-10T12:45:59.000Z</time>
      </trkpt>
      <trkpt lat="44.81612" lon="0.67267">
        <ele>48</ele>
        <time>2014-04-10T12:46:52.000Z</time>
      </trkpt>
      <trkpt lat="44.81612" lon="0.67267">
        <ele>48</ele>
        <time>2014-04-10T12:46:54.000Z</time>
      </trkpt>
      <trkpt lat="44.81612" lon="0.67267">
        <ele>48</ele>
        <time>2014-04-10T12:46:58.000Z</time>
      </trkpt>
      <trkpt lat="44.81612" lon="0.67267">
        <ele>48</ele>
        <time>2014-04-10T12:47:00.000Z</time>
      </trkpt>
      <trkpt lat="44.81606" lon="0.67259">
        <ele>46</ele>
        <time>2014-04-10T12:47:12.000Z</time>
      </trkpt>
      <trkpt lat="44.81599" lon="0.6724">
        <ele>48</ele>
        <time>2014-04-10T12:47:26.000Z</time>
      </trkpt>
      <trkpt lat="44.81599" lon="0.6724">
        <ele>48</ele>
        <time>2014-04-10T12:47:34.000Z</time>
      </trkpt>
      <trkpt lat="44.81599" lon="0.6724">
        <ele>48</ele>
        <time>2014-04-10T12:47:38.000Z</time>
      </trkpt>
      <trkpt lat="44.81599" lon="0.6724">
        <ele>48</ele>
        <time>2014-04-10T12:47:40.000Z</time>
      </trkpt>
      <trkpt lat="44.81582" lon="0.67225">
        <ele>42</ele>
        <time>2014-04-10T12:47:58.000Z</time>
      </trkpt>
      <trkpt lat="44.81585" lon="0.67209">
        <ele>40</ele>
        <time>2014-04-10T12:48:08.000Z</time>
      </trkpt>
      <trkpt lat="44.81585" lon="0.67209">
        <ele>40</ele>
        <time>2014-04-10T12:48:12.000Z</time>
      </trkpt>
      <trkpt lat="44.81585" lon="0.67209">
        <ele>40</ele>
        <time>2014-04-10T12:48:14.000Z</time>
      </trkpt>
      <trkpt lat="44.81585" lon="0.67209">
        <ele>40</ele>
        <time>2014-04-10T12:48:16.000Z</time>
      </trkpt>
      <trkpt lat="44.81585" lon="0.67209">
        <ele>40</ele>
        <time>2014-04-10T12:48:18.000Z</time>
      </trkpt>
      <trkpt lat="44.81585" lon="0.67209">
        <ele>40</ele>
        <time>2014-04-10T12:48:20.000Z</time>
      </trkpt>
      <trkpt lat="44.81578" lon="0.67193">
        <ele>34</ele>
        <time>2014-04-10T12:48:22.000Z</time>
      </trkpt>
      <trkpt lat="44.81578" lon="0.67193">
        <ele>34</ele>
        <time>2014-04-10T12:48:34.000Z</time>
      </trkpt>
      <trkpt lat="44.81578" lon="0.67193">
        <ele>34</ele>
        <time>2014-04-10T12:48:36.000Z</time>
      </trkpt>
      <trkpt lat="44.81578" lon="0.67193">
        <ele>34</ele>
        <time>2014-04-10T12:48:42.000Z</time>
      </trkpt>
      <trkpt lat="44.81578" lon="0.67193">
        <ele>34</ele>
        <time>2014-04-10T12:48:44.000Z</time>
      </trkpt>
      <trkpt lat="44.81578" lon="0.67193">
        <ele>34</ele>
        <time>2014-04-10T12:48:46.000Z</time>
      </trkpt>
      <trkpt lat="44.81578" lon="0.67193">
        <ele>34</ele>
        <time>2014-04-10T12:48:58.000Z</time>
      </trkpt>
      <trkpt lat="44.81582" lon="0.67182">
        <ele>27</ele>
        <time>2014-04-10T12:49:10.000Z</time>
      </trkpt>
      <trkpt lat="44.81582" lon="0.67182">
        <ele>27</ele>
        <time>2014-04-10T12:49:12.000Z</time>
      </trkpt>
      <trkpt lat="44.81582" lon="0.67182">
        <ele>27</ele>
        <time>2014-04-10T12:49:14.000Z</time>
      </trkpt>
      <trkpt lat="44.81582" lon="0.67182">
        <ele>27</ele>
        <time>2014-04-10T12:49:16.000Z</time>
      </trkpt>
      <trkpt lat="44.81582" lon="0.67182">
        <ele>27</ele>
        <time>2014-04-10T12:49:18.000Z</time>
      </trkpt>
      <trkpt lat="44.81591" lon="0.67168">
        <ele>30</ele>
        <time>2014-04-10T12:49:30.000Z</time>
      </trkpt>
      <trkpt lat="44.81591" lon="0.67168">
        <ele>30</ele>
        <time>2014-04-10T12:49:32.000Z</time>
      </trkpt>
      <trkpt lat="44.81591" lon="0.67168">
        <ele>30</ele>
        <time>2014-04-10T12:49:34.000Z</time>
      </trkpt>
      <trkpt lat="44.81618" lon="0.67139">
        <ele>42</ele>
        <time>2014-04-10T12:50:01.000Z</time>
      </trkpt>
      <trkpt lat="44.81618" lon="0.67139">
        <ele>42</ele>
        <time>2014-04-10T12:50:03.000Z</time>
      </trkpt>
      <trkpt lat="44.81618" lon="0.67139">
        <ele>42</ele>
        <time>2014-04-10T12:50:05.000Z</time>
      </trkpt>
      <trkpt lat="44.81618" lon="0.67139">
        <ele>42</ele>
        <time>2014-04-10T12:50:07.000Z</time>
      </trkpt>
      <trkpt lat="44.81618" lon="0.67139">
        <ele>42</ele>
        <time>2014-04-10T12:50:09.000Z</time>
      </trkpt>
      <trkpt lat="44.81628" lon="0.67138">
        <ele>42</ele>
        <time>2014-04-10T12:50:11.000Z</time>
      </trkpt>
      <trkpt lat="44.81628" lon="0.67138">
        <ele>42</ele>
        <time>2014-04-10T12:50:17.000Z</time>
      </trkpt>
      <trkpt lat="44.81628" lon="0.67138">
        <ele>42</ele>
        <time>2014-04-10T12:50:19.000Z</time>
      </trkpt>
      <trkpt lat="44.81642" lon="0.6713">
        <ele>49</ele>
        <time>2014-04-10T12:50:34.000Z</time>
      </trkpt>
      <trkpt lat="44.81651" lon="0.67118">
        <ele>54</ele>
        <time>2014-04-10T12:50:42.000Z</time>
      </trkpt>
      <trkpt lat="44.81651" lon="0.67118">
        <ele>54</ele>
        <time>2014-04-10T12:50:48.000Z</time>
      </trkpt>
      <trkpt lat="44.81651" lon="0.67118">
        <ele>54</ele>
        <time>2014-04-10T12:50:50.000Z</time>
      </trkpt>
      <trkpt lat="44.81651" lon="0.67118">
        <ele>54</ele>
        <time>2014-04-10T12:50:54.000Z</time>
      </trkpt>
      <trkpt lat="44.81651" lon="0.67118">
        <ele>54</ele>
        <time>2014-04-10T12:50:56.000Z</time>
      </trkpt>
      <trkpt lat="44.81651" lon="0.67118">
        <ele>54</ele>
        <time>2014-04-10T12:50:58.000Z</time>
      </trkpt>
      <trkpt lat="44.81664" lon="0.67102">
        <ele>50</ele>
        <time>2014-04-10T12:51:04.000Z</time>
      </trkpt>
      <trkpt lat="44.81672" lon="0.67092">
        <ele>49</ele>
        <time>2014-04-10T12:51:12.000Z</time>
      </trkpt>
      <trkpt lat="44.81672" lon="0.67092">
        <ele>49</ele>
        <time>2014-04-10T12:51:14.000Z</time>
      </trkpt>
      <trkpt lat="44.81672" lon="0.67092">
        <ele>49</ele>
        <time>2014-04-10T12:51:16.000Z</time>
      </trkpt>
      <trkpt lat="44.81672" lon="0.67092">
        <ele>49</ele>
        <time>2014-04-10T12:51:18.000Z</time>
      </trkpt>
      <trkpt lat="44.81672" lon="0.67092">
        <ele>49</ele>
        <time>2014-04-10T12:51:20.000Z</time>
      </trkpt>
      <trkpt lat="44.81681" lon="0.67097">
        <ele>40</ele>
        <time>2014-04-10T12:51:32.000Z</time>
      </trkpt>
      <trkpt lat="44.81681" lon="0.67097">
        <ele>40</ele>
        <time>2014-04-10T12:51:34.000Z</time>
      </trkpt>
      <trkpt lat="44.81681" lon="0.67097">
        <ele>40</ele>
        <time>2014-04-10T12:51:38.000Z</time>
      </trkpt>
      <trkpt lat="44.81681" lon="0.67097">
        <ele>40</ele>
        <time>2014-04-10T12:51:40.000Z</time>
      </trkpt>
      <trkpt lat="44.81683" lon="0.67089">
        <ele>24</ele>
        <time>2014-04-10T12:51:50.000Z</time>
      </trkpt>
      <trkpt lat="44.81683" lon="0.67089">
        <ele>24</ele>
        <time>2014-04-10T12:52:06.000Z</time>
      </trkpt>
      <trkpt lat="44.81683" lon="0.67089">
        <ele>24</ele>
        <time>2014-04-10T12:52:08.000Z</time>
      </trkpt>
      <trkpt lat="44.81683" lon="0.67089">
        <ele>24</ele>
        <time>2014-04-10T12:52:10.000Z</time>
      </trkpt>
      <trkpt lat="44.81703" lon="0.67082">
        <ele>6</ele>
        <time>2014-04-10T12:52:34.000Z</time>
      </trkpt>
      <trkpt lat="44.81724" lon="0.67087">
        <ele>15</ele>
        <time>2014-04-10T12:53:12.000Z</time>
      </trkpt>
      <trkpt lat="44.81724" lon="0.67087">
        <ele>15</ele>
        <time>2014-04-10T12:53:16.000Z</time>
      </trkpt>
      <trkpt lat="44.81724" lon="0.67087">
        <ele>15</ele>
        <time>2014-04-10T12:53:18.000Z</time>
      </trkpt>
      <trkpt lat="44.81734" lon="0.67084">
        <ele>15</ele>
        <time>2014-04-10T12:53:37.000Z</time>
      </trkpt>
      <trkpt lat="44.81743" lon="0.67082">
        <ele>19</ele>
        <time>2014-04-10T12:53:49.000Z</time>
      </trkpt>
      <trkpt lat="44.81743" lon="0.67082">
        <ele>19</ele>
        <time>2014-04-10T12:53:53.000Z</time>
      </trkpt>
      <trkpt lat="44.81743" lon="0.67082">
        <ele>19</ele>
        <time>2014-04-10T12:53:55.000Z</time>
      </trkpt>
      <trkpt lat="44.81743" lon="0.67082">
        <ele>19</ele>
        <time>2014-04-10T12:53:57.000Z</time>
      </trkpt>
      <trkpt lat="44.81743" lon="0.67082">
        <ele>19</ele>
        <time>2014-04-10T12:53:59.000Z</time>
      </trkpt>
      <trkpt lat="44.81743" lon="0.67082">
        <ele>19</ele>
        <time>2014-04-10T12:54:01.000Z</time>
      </trkpt>
      <trkpt lat="44.81743" lon="0.67082">
        <ele>19</ele>
        <time>2014-04-10T12:54:03.000Z</time>
      </trkpt>
      <trkpt lat="44.81743" lon="0.67082">
        <ele>19</ele>
        <time>2014-04-10T12:54:29.000Z</time>
      </trkpt>
      <trkpt lat="44.81743" lon="0.67082">
        <ele>19</ele>
        <time>2014-04-10T12:54:31.000Z</time>
      </trkpt>
      <trkpt lat="44.81743" lon="0.67082">
        <ele>19</ele>
        <time>2014-04-10T12:54:33.000Z</time>
      </trkpt>
      <trkpt lat="44.81799" lon="0.67072">
        <ele>42</ele>
        <time>2014-04-10T12:55:59.000Z</time>
      </trkpt>
      <trkpt lat="44.81799" lon="0.67072">
        <ele>42</ele>
        <time>2014-04-10T12:56:18.000Z</time>
      </trkpt>
      <trkpt lat="44.81837" lon="0.67092">
        <ele>32</ele>
        <time>2014-04-10T12:57:05.000Z</time>
      </trkpt>
      <trkpt lat="44.81837" lon="0.67092">
        <ele>32</ele>
        <time>2014-04-10T12:57:13.000Z</time>
      </trkpt>
      <trkpt lat="44.81837" lon="0.67092">
        <ele>32</ele>
        <time>2014-04-10T12:57:15.000Z</time>
      </trkpt>
      <trkpt lat="44.81837" lon="0.67092">
        <ele>32</ele>
        <time>2014-04-10T12:57:17.000Z</time>
      </trkpt>
      <trkpt lat="44.81837" lon="0.67092">
        <ele>32</ele>
        <time>2014-04-10T12:57:19.000Z</time>
      </trkpt>
      <trkpt lat="44.81837" lon="0.67092">
        <ele>32</ele>
        <time>2014-04-10T12:57:21.000Z</time>
      </trkpt>
      <trkpt lat="44.81837" lon="0.67092">
        <ele>32</ele>
        <time>2014-04-10T12:57:23.000Z</time>
      </trkpt>
      <trkpt lat="44.81837" lon="0.67092">
        <ele>32</ele>
        <time>2014-04-10T12:57:25.000Z</time>
      </trkpt>
      <trkpt lat="44.81837" lon="0.67092">
        <ele>32</ele>
        <time>2014-04-10T12:57:27.000Z</time>
      </trkpt>
      <trkpt lat="44.81841" lon="0.67151">
        <ele>36</ele>
        <time>2014-04-10T12:58:15.000Z</time>
      </trkpt>
      <trkpt lat="44.81841" lon="0.67151">
        <ele>36</ele>
        <time>2014-04-10T12:58:17.000Z</time>
      </trkpt>
      <trkpt lat="44.81841" lon="0.67151">
        <ele>36</ele>
        <time>2014-04-10T12:58:21.000Z</time>
      </trkpt>
      <trkpt lat="44.81841" lon="0.67151">
        <ele>36</ele>
        <time>2014-04-10T12:58:23.000Z</time>
      </trkpt>
      <trkpt lat="44.81844" lon="0.67173">
        <ele>39</ele>
        <time>2014-04-10T12:58:31.000Z</time>
      </trkpt>
      <trkpt lat="44.81859" lon="0.67191">
        <ele>31</ele>
        <time>2014-04-10T12:58:53.000Z</time>
      </trkpt>
      <trkpt lat="44.81859" lon="0.67191">
        <ele>31</ele>
        <time>2014-04-10T12:58:55.000Z</time>
      </trkpt>
      <trkpt lat="44.81859" lon="0.67191">
        <ele>31</ele>
        <time>2014-04-10T12:59:01.000Z</time>
      </trkpt>
      <trkpt lat="44.81859" lon="0.67191">
        <ele>31</ele>
        <time>2014-04-10T12:59:03.000Z</time>
      </trkpt>
      <trkpt lat="44.81859" lon="0.67191">
        <ele>31</ele>
        <time>2014-04-10T12:59:05.000Z</time>
      </trkpt>
      <trkpt lat="44.81871" lon="0.67192">
        <ele>32</ele>
        <time>2014-04-10T12:59:16.000Z</time>
      </trkpt>
      <trkpt lat="44.81909" lon="0.67169">
        <ele>29</ele>
        <time>2014-04-10T13:00:19.000Z</time>
      </trkpt>
      <trkpt lat="44.8192" lon="0.6718">
        <ele>30</ele>
        <time>2014-04-10T13:00:29.000Z</time>
      </trkpt>
      <trkpt lat="44.8192" lon="0.6718">
        <ele>30</ele>
        <time>2014-04-10T13:00:37.000Z</time>
      </trkpt>
      <trkpt lat="44.8192" lon="0.6718">
        <ele>30</ele>
        <time>2014-04-10T13:00:39.000Z</time>
      </trkpt>
      <trkpt lat="44.8192" lon="0.6718">
        <ele>30</ele>
        <time>2014-04-10T13:00:41.000Z</time>
      </trkpt>
      <trkpt lat="44.8192" lon="0.6718">
        <ele>30</ele>
        <time>2014-04-10T13:00:51.000Z</time>
      </trkpt>
      <trkpt lat="44.81941" lon="0.67194">
        <ele>43</ele>
        <time>2014-04-10T13:02:57.000Z</time>
      </trkpt>
      <trkpt lat="44.81941" lon="0.67194">
        <ele>43</ele>
        <time>2014-04-10T13:03:01.000Z</time>
      </trkpt>
      <trkpt lat="44.81941" lon="0.67194">
        <ele>43</ele>
        <time>2014-04-10T13:03:03.000Z</time>
      </trkpt>
      <trkpt lat="44.81941" lon="0.67194">
        <ele>43</ele>
        <time>2014-04-10T13:03:05.000Z</time>
      </trkpt>
      <trkpt lat="44.81941" lon="0.67194">
        <ele>43</ele>
        <time>2014-04-10T13:03:07.000Z</time>
      </trkpt>
      <trkpt lat="44.81941" lon="0.67194">
        <ele>43</ele>
        <time>2014-04-10T13:03:09.000Z</time>
      </trkpt>
      <trkpt lat="44.81941" lon="0.67194">
        <ele>43</ele>
        <time>2014-04-10T13:03:23.000Z</time>
      </trkpt>
      <trkpt lat="44.81941" lon="0.67194">
        <ele>43</ele>
        <time>2014-04-10T13:03:41.000Z</time>
      </trkpt>
      <trkpt lat="44.81941" lon="0.67194">
        <ele>43</ele>
        <time>2014-04-10T13:03:45.000Z</time>
      </trkpt>
      <trkpt lat="44.81941" lon="0.67194">
        <ele>43</ele>
        <time>2014-04-10T13:03:47.000Z</time>
      </trkpt>
      <trkpt lat="44.8202" lon="0.67178">
        <ele>63</ele>
        <time>2014-04-10T13:05:52.000Z</time>
      </trkpt>
      <trkpt lat="44.8202" lon="0.67178">
        <ele>63</ele>
        <time>2014-04-10T13:05:56.000Z</time>
      </trkpt>
      <trkpt lat="44.82047" lon="0.67181">
        <ele>46</ele>
        <time>2014-04-10T13:06:20.000Z</time>
      </trkpt>
      <trkpt lat="44.82047" lon="0.67181">
        <ele>46</ele>
        <time>2014-04-10T13:06:22.000Z</time>
      </trkpt>
      <trkpt lat="44.82047" lon="0.67181">
        <ele>46</ele>
        <time>2014-04-10T13:06:24.000Z</time>
      </trkpt>
      <trkpt lat="44.82047" lon="0.67181">
        <ele>46</ele>
        <time>2014-04-10T13:06:26.000Z</time>
      </trkpt>
      <trkpt lat="44.82047" lon="0.67181">
        <ele>46</ele>
        <time>2014-04-10T13:06:40.000Z</time>
      </trkpt>
      <trkpt lat="44.82047" lon="0.67181">
        <ele>46</ele>
        <time>2014-04-10T13:06:42.000Z</time>
      </trkpt>
      <trkpt lat="44.82066" lon="0.67187">
        <ele>49</ele>
        <time>2014-04-10T13:06:46.000Z</time>
      </trkpt>
      <trkpt lat="44.82066" lon="0.67187">
        <ele>49</ele>
        <time>2014-04-10T13:06:48.000Z</time>
      </trkpt>
      <trkpt lat="44.82066" lon="0.67187">
        <ele>49</ele>
        <time>2014-04-10T13:06:50.000Z</time>
      </trkpt>
      <trkpt lat="44.82066" lon="0.67187">
        <ele>49</ele>
        <time>2014-04-10T13:07:00.000Z</time>
      </trkpt>
      <trkpt lat="44.82088" lon="0.67181">
        <ele>53</ele>
        <time>2014-04-10T13:07:26.000Z</time>
      </trkpt>
      <trkpt lat="44.82088" lon="0.67181">
        <ele>53</ele>
        <time>2014-04-10T13:07:31.000Z</time>
      </trkpt>
      <trkpt lat="44.82088" lon="0.67181">
        <ele>53</ele>
        <time>2014-04-10T13:07:35.000Z</time>
      </trkpt>
      <trkpt lat="44.82096" lon="0.67283">
        <ele>68</ele>
        <time>2014-04-10T13:09:42.000Z</time>
      </trkpt>
      <trkpt lat="44.82096" lon="0.67283">
        <ele>68</ele>
        <time>2014-04-10T13:09:44.000Z</time>
      </trkpt>
      <trkpt lat="44.82096" lon="0.67283">
        <ele>68</ele>
        <time>2014-04-10T13:09:47.000Z</time>
      </trkpt>
      <trkpt lat="44.82096" lon="0.67283">
        <ele>68</ele>
        <time>2014-04-10T13:09:49.000Z</time>
      </trkpt>
      <trkpt lat="44.82096" lon="0.67283">
        <ele>68</ele>
        <time>2014-04-10T13:09:51.000Z</time>
      </trkpt>
      <trkpt lat="44.82096" lon="0.67283">
        <ele>68</ele>
        <time>2014-04-10T13:09:53.000Z</time>
      </trkpt>
      <trkpt lat="44.82096" lon="0.67283">
        <ele>68</ele>
        <time>2014-04-10T13:09:55.000Z</time>
      </trkpt>
      <trkpt lat="44.82096" lon="0.67283">
        <ele>68</ele>
        <time>2014-04-10T13:09:57.000Z</time>
      </trkpt>
      <trkpt lat="44.82096" lon="0.67283">
        <ele>68</ele>
        <time>2014-04-10T13:09:59.000Z</time>
      </trkpt>
      <trkpt lat="44.82096" lon="0.67283">
        <ele>68</ele>
        <time>2014-04-10T13:10:01.000Z</time>
      </trkpt>
      <trkpt lat="44.82096" lon="0.67283">
        <ele>68</ele>
        <time>2014-04-10T13:10:05.000Z</time>
      </trkpt>
      <trkpt lat="44.82096" lon="0.67283">
        <ele>68</ele>
        <time>2014-04-10T13:10:07.000Z</time>
      </trkpt>
      <trkpt lat="44.82096" lon="0.67283">
        <ele>68</ele>
        <time>2014-04-10T13:10:09.000Z</time>
      </trkpt>
      <trkpt lat="44.82096" lon="0.67283">
        <ele>68</ele>
        <time>2014-04-10T13:10:11.000Z</time>
      </trkpt>
      <trkpt lat="44.82096" lon="0.67283">
        <ele>68</ele>
        <time>2014-04-10T13:10:13.000Z</time>
      </trkpt>
      <trkpt lat="44.82096" lon="0.67283">
        <ele>68</ele>
        <time>2014-04-10T13:10:15.000Z</time>
      </trkpt>
      <trkpt lat="44.82096" lon="0.67283">
        <ele>68</ele>
        <time>2014-04-10T13:10:17.000Z</time>
      </trkpt>
      <trkpt lat="44.82103" lon="0.67339">
        <ele>98</ele>
        <time>2014-04-10T13:10:31.000Z</time>
      </trkpt>
      <trkpt lat="44.82103" lon="0.67339">
        <ele>98</ele>
        <time>2014-04-10T13:10:33.000Z</time>
      </trkpt>
      <trkpt lat="44.82103" lon="0.67339">
        <ele>98</ele>
        <time>2014-04-10T13:10:35.000Z</time>
      </trkpt>
      <trkpt lat="44.82103" lon="0.67339">
        <ele>98</ele>
        <time>2014-04-10T13:10:37.000Z</time>
      </trkpt>
      <trkpt lat="44.82103" lon="0.67339">
        <ele>98</ele>
        <time>2014-04-10T13:10:39.000Z</time>
      </trkpt>
      <trkpt lat="44.82109" lon="0.67338">
        <ele>98</ele>
        <time>2014-04-10T13:10:48.000Z</time>
      </trkpt>
      <trkpt lat="44.82121" lon="0.67335">
        <ele>99</ele>
        <time>2014-04-10T13:11:00.000Z</time>
      </trkpt>
      <trkpt lat="44.82121" lon="0.67335">
        <ele>99</ele>
        <time>2014-04-10T13:11:02.000Z</time>
      </trkpt>
      <trkpt lat="44.82121" lon="0.67335">
        <ele>99</ele>
        <time>2014-04-10T13:11:06.000Z</time>
      </trkpt>
      <trkpt lat="44.82121" lon="0.67335">
        <ele>99</ele>
        <time>2014-04-10T13:11:12.000Z</time>
      </trkpt>
      <trkpt lat="44.82121" lon="0.67335">
        <ele>99</ele>
        <time>2014-04-10T13:11:14.000Z</time>
      </trkpt>
      <trkpt lat="44.82126" lon="0.67339">
        <ele>105</ele>
        <time>2014-04-10T13:11:27.000Z</time>
      </trkpt>
      <trkpt lat="44.82126" lon="0.67339">
        <ele>105</ele>
        <time>2014-04-10T13:11:29.000Z</time>
      </trkpt>
      <trkpt lat="44.82133" lon="0.67338">
        <ele>101</ele>
        <time>2014-04-10T13:11:40.000Z</time>
      </trkpt>
      <trkpt lat="44.82133" lon="0.67338">
        <ele>101</ele>
        <time>2014-04-10T13:11:46.000Z</time>
      </trkpt>
      <trkpt lat="44.82133" lon="0.67338">
        <ele>101</ele>
        <time>2014-04-10T13:11:48.000Z</time>
      </trkpt>
      <trkpt lat="44.82133" lon="0.67338">
        <ele>101</ele>
        <time>2014-04-10T13:11:50.000Z</time>
      </trkpt>
      <trkpt lat="44.82133" lon="0.67338">
        <ele>101</ele>
        <time>2014-04-10T13:11:52.000Z</time>
      </trkpt>
      <trkpt lat="44.82133" lon="0.67338">
        <ele>101</ele>
        <time>2014-04-10T13:11:54.000Z</time>
      </trkpt>
      <trkpt lat="44.82151" lon="0.67322">
        <ele>108</ele>
        <time>2014-04-10T13:12:12.000Z</time>
      </trkpt>
      <trkpt lat="44.82151" lon="0.67322">
        <ele>108</ele>
        <time>2014-04-10T13:12:14.000Z</time>
      </trkpt>
      <trkpt lat="44.82151" lon="0.67322">
        <ele>108</ele>
        <time>2014-04-10T13:12:20.000Z</time>
      </trkpt>
      <trkpt lat="44.82151" lon="0.67322">
        <ele>108</ele>
        <time>2014-04-10T13:12:22.000Z</time>
      </trkpt>
      <trkpt lat="44.82164" lon="0.67318">
        <ele>105</ele>
        <time>2014-04-10T13:12:28.000Z</time>
      </trkpt>
      <trkpt lat="44.82164" lon="0.67318">
        <ele>105</ele>
        <time>2014-04-10T13:12:30.000Z</time>
      </trkpt>
      <trkpt lat="44.82164" lon="0.67318">
        <ele>105</ele>
        <time>2014-04-10T13:12:32.000Z</time>
      </trkpt>
      <trkpt lat="44.82164" lon="0.67318">
        <ele>105</ele>
        <time>2014-04-10T13:12:34.000Z</time>
      </trkpt>
      <trkpt lat="44.82164" lon="0.67318">
        <ele>105</ele>
        <time>2014-04-10T13:12:36.000Z</time>
      </trkpt>
      <trkpt lat="44.82182" lon="0.6732">
        <ele>99</ele>
        <time>2014-04-10T13:12:48.000Z</time>
      </trkpt>
      <trkpt lat="44.82182" lon="0.6732">
        <ele>99</ele>
        <time>2014-04-10T13:12:56.000Z</time>
      </trkpt>
      <trkpt lat="44.82182" lon="0.6732">
        <ele>99</ele>
        <time>2014-04-10T13:12:58.000Z</time>
      </trkpt>
      <trkpt lat="44.82182" lon="0.6732">
        <ele>99</ele>
        <time>2014-04-10T13:13:00.000Z</time>
      </trkpt>
      <trkpt lat="44.82182" lon="0.6732">
        <ele>99</ele>
        <time>2014-04-10T13:13:02.000Z</time>
      </trkpt>
      <trkpt lat="44.82182" lon="0.6732">
        <ele>99</ele>
        <time>2014-04-10T13:13:04.000Z</time>
      </trkpt>
      <trkpt lat="44.82182" lon="0.6732">
        <ele>99</ele>
        <time>2014-04-10T13:13:06.000Z</time>
      </trkpt>
      <trkpt lat="44.82182" lon="0.6732">
        <ele>99</ele>
        <time>2014-04-10T13:13:08.000Z</time>
      </trkpt>
      <trkpt lat="44.82182" lon="0.6732">
        <ele>99</ele>
        <time>2014-04-10T13:13:36.000Z</time>
      </trkpt>
      <trkpt lat="44.82233" lon="0.67284">
        <ele>93</ele>
        <time>2014-04-10T13:16:38.000Z</time>
      </trkpt>
      <trkpt lat="44.82233" lon="0.67284">
        <ele>93</ele>
        <time>2014-04-10T13:16:40.000Z</time>
      </trkpt>
      <trkpt lat="44.82233" lon="0.67284">
        <ele>93</ele>
        <time>2014-04-10T13:16:48.000Z</time>
      </trkpt>
      <trkpt lat="44.82233" lon="0.67284">
        <ele>93</ele>
        <time>2014-04-10T13:16:50.000Z</time>
      </trkpt>
      <trkpt lat="44.82233" lon="0.67284">
        <ele>93</ele>
        <time>2014-04-10T13:16:52.000Z</time>
      </trkpt>
      <trkpt lat="44.82232" lon="0.67264">
        <ele>96</ele>
        <time>2014-04-10T13:16:56.000Z</time>
      </trkpt>
      <trkpt lat="44.82232" lon="0.67264">
        <ele>96</ele>
        <time>2014-04-10T13:17:00.000Z</time>
      </trkpt>
      <trkpt lat="44.82232" lon="0.67264">
        <ele>96</ele>
        <time>2014-04-10T13:17:02.000Z</time>
      </trkpt>
      <trkpt lat="44.82232" lon="0.67264">
        <ele>96</ele>
        <time>2014-04-10T13:17:30.000Z</time>
      </trkpt>
      <trkpt lat="44.82232" lon="0.67264">
        <ele>96</ele>
        <time>2014-04-10T13:17:32.000Z</time>
      </trkpt>
      <trkpt lat="44.8222" lon="0.67239">
        <ele>93</ele>
        <time>2014-04-10T13:17:44.000Z</time>
      </trkpt>
      <trkpt lat="44.82214" lon="0.67226">
        <ele>93</ele>
        <time>2014-04-10T13:17:46.000Z</time>
      </trkpt>
      <trkpt lat="44.82214" lon="0.67226">
        <ele>93</ele>
        <time>2014-04-10T13:17:48.000Z</time>
      </trkpt>
      <trkpt lat="44.82214" lon="0.67226">
        <ele>93</ele>
        <time>2014-04-10T13:17:50.000Z</time>
      </trkpt>
      <trkpt lat="44.82214" lon="0.67226">
        <ele>93</ele>
        <time>2014-04-10T13:17:52.000Z</time>
      </trkpt>
      <trkpt lat="44.8221" lon="0.6721">
        <ele>90</ele>
        <time>2014-04-10T13:18:06.000Z</time>
      </trkpt>
      <trkpt lat="44.8221" lon="0.6721">
        <ele>90</ele>
        <time>2014-04-10T13:18:08.000Z</time>
      </trkpt>
      <trkpt lat="44.82207" lon="0.672">
        <ele>90</ele>
        <time>2014-04-10T13:18:10.000Z</time>
      </trkpt>
      <trkpt lat="44.82206" lon="0.67194">
        <ele>91</ele>
        <time>2014-04-10T13:18:12.000Z</time>
      </trkpt>
      <trkpt lat="44.82205" lon="0.67186">
        <ele>91</ele>
        <time>2014-04-10T13:18:20.000Z</time>
      </trkpt>
      <trkpt lat="44.82205" lon="0.67186">
        <ele>91</ele>
        <time>2014-04-10T13:18:22.000Z</time>
      </trkpt>
      <trkpt lat="44.82205" lon="0.67179">
        <ele>92</ele>
        <time>2014-04-10T13:18:24.000Z</time>
      </trkpt>
      <trkpt lat="44.82205" lon="0.67179">
        <ele>92</ele>
        <time>2014-04-10T13:18:30.000Z</time>
      </trkpt>
      <trkpt lat="44.82205" lon="0.67179">
        <ele>92</ele>
        <time>2014-04-10T13:18:32.000Z</time>
      </trkpt>
      <trkpt lat="44.82205" lon="0.67179">
        <ele>92</ele>
        <time>2014-04-10T13:18:34.000Z</time>
      </trkpt>
      <trkpt lat="44.82205" lon="0.67179">
        <ele>92</ele>
        <time>2014-04-10T13:18:40.000Z</time>
      </trkpt>
      <trkpt lat="44.82205" lon="0.67179">
        <ele>92</ele>
        <time>2014-04-10T13:18:42.000Z</time>
      </trkpt>
      <trkpt lat="44.82205" lon="0.67179">
        <ele>92</ele>
        <time>2014-04-10T13:18:44.000Z</time>
      </trkpt>
      <trkpt lat="44.82205" lon="0.67179">
        <ele>92</ele>
        <time>2014-04-10T13:18:52.000Z</time>
      </trkpt>
      <trkpt lat="44.82205" lon="0.67179">
        <ele>92</ele>
        <time>2014-04-10T13:18:54.000Z</time>
      </trkpt>
      <trkpt lat="44.82211" lon="0.67152">
        <ele>92</ele>
        <time>2014-04-10T13:19:08.000Z</time>
      </trkpt>
      <trkpt lat="44.82211" lon="0.67152">
        <ele>92</ele>
        <time>2014-04-10T13:19:16.000Z</time>
      </trkpt>
      <trkpt lat="44.82211" lon="0.67152">
        <ele>92</ele>
        <time>2014-04-10T13:19:18.000Z</time>
      </trkpt>
      <trkpt lat="44.82211" lon="0.67152">
        <ele>92</ele>
        <time>2014-04-10T13:19:20.000Z</time>
      </trkpt>
      <trkpt lat="44.82211" lon="0.67152">
        <ele>92</ele>
        <time>2014-04-10T13:19:26.000Z</time>
      </trkpt>
      <trkpt lat="44.82211" lon="0.67152">
        <ele>92</ele>
        <time>2014-04-10T13:19:42.000Z</time>
      </trkpt>
      <trkpt lat="44.82222" lon="0.67114">
        <ele>91</ele>
        <time>2014-04-10T13:19:50.000Z</time>
      </trkpt>
      <trkpt lat="44.82222" lon="0.67114">
        <ele>91</ele>
        <time>2014-04-10T13:19:52.000Z</time>
      </trkpt>
      <trkpt lat="44.82222" lon="0.67114">
        <ele>91</ele>
        <time>2014-04-10T13:19:56.000Z</time>
      </trkpt>
      <trkpt lat="44.82222" lon="0.67114">
        <ele>91</ele>
        <time>2014-04-10T13:19:58.000Z</time>
      </trkpt>
      <trkpt lat="44.82222" lon="0.67114">
        <ele>91</ele>
        <time>2014-04-10T13:20:00.000Z</time>
      </trkpt>
      <trkpt lat="44.82222" lon="0.67114">
        <ele>91</ele>
        <time>2014-04-10T13:20:10.000Z</time>
      </trkpt>
      <trkpt lat="44.82222" lon="0.67114">
        <ele>91</ele>
        <time>2014-04-10T13:20:12.000Z</time>
      </trkpt>
      <trkpt lat="44.82222" lon="0.67114">
        <ele>91</ele>
        <time>2014-04-10T13:20:14.000Z</time>
      </trkpt>
      <trkpt lat="44.82222" lon="0.67114">
        <ele>91</ele>
        <time>2014-04-10T13:20:26.000Z</time>
      </trkpt>
      <trkpt lat="44.82247" lon="0.67112">
        <ele>94</ele>
        <time>2014-04-10T13:20:37.000Z</time>
      </trkpt>
      <trkpt lat="44.82247" lon="0.67112">
        <ele>94</ele>
        <time>2014-04-10T13:20:41.000Z</time>
      </trkpt>
      <trkpt lat="44.82247" lon="0.67112">
        <ele>94</ele>
        <time>2014-04-10T13:20:43.000Z</time>
      </trkpt>
      <trkpt lat="44.82247" lon="0.67112">
        <ele>94</ele>
        <time>2014-04-10T13:20:45.000Z</time>
      </trkpt>
      <trkpt lat="44.82247" lon="0.67112">
        <ele>94</ele>
        <time>2014-04-10T13:20:53.000Z</time>
      </trkpt>
      <trkpt lat="44.82263" lon="0.67105">
        <ele>94</ele>
        <time>2014-04-10T13:20:57.000Z</time>
      </trkpt>
      <trkpt lat="44.82272" lon="0.67102">
        <ele>92</ele>
        <time>2014-04-10T13:21:07.000Z</time>
      </trkpt>
      <trkpt lat="44.82272" lon="0.67102">
        <ele>92</ele>
        <time>2014-04-10T13:21:09.000Z</time>
      </trkpt>
      <trkpt lat="44.82272" lon="0.67102">
        <ele>92</ele>
        <time>2014-04-10T13:21:11.000Z</time>
      </trkpt>
      <trkpt lat="44.82301" lon="0.67087">
        <ele>91</ele>
        <time>2014-04-10T13:21:48.000Z</time>
      </trkpt>
      <trkpt lat="44.82301" lon="0.67087">
        <ele>91</ele>
        <time>2014-04-10T13:21:50.000Z</time>
      </trkpt>
      <trkpt lat="44.82301" lon="0.67087">
        <ele>91</ele>
        <time>2014-04-10T13:21:52.000Z</time>
      </trkpt>
      <trkpt lat="44.82301" lon="0.67087">
        <ele>91</ele>
        <time>2014-04-10T13:21:54.000Z</time>
      </trkpt>
      <trkpt lat="44.8231" lon="0.67079">
        <ele>93</ele>
        <time>2014-04-10T13:22:02.000Z</time>
      </trkpt>
      <trkpt lat="44.8231" lon="0.67079">
        <ele>93</ele>
        <time>2014-04-10T13:22:04.000Z</time>
      </trkpt>
      <trkpt lat="44.8231" lon="0.67079">
        <ele>93</ele>
        <time>2014-04-10T13:22:08.000Z</time>
      </trkpt>
      <trkpt lat="44.8231" lon="0.67079">
        <ele>93</ele>
        <time>2014-04-10T13:22:10.000Z</time>
      </trkpt>
      <trkpt lat="44.8231" lon="0.67079">
        <ele>93</ele>
        <time>2014-04-10T13:22:12.000Z</time>
      </trkpt>
      <trkpt lat="44.8231" lon="0.67079">
        <ele>93</ele>
        <time>2014-04-10T13:22:14.000Z</time>
      </trkpt>
      <trkpt lat="44.8231" lon="0.67079">
        <ele>93</ele>
        <time>2014-04-10T13:22:16.000Z</time>
      </trkpt>
      <trkpt lat="44.8231" lon="0.67079">
        <ele>93</ele>
        <time>2014-04-10T13:22:18.000Z</time>
      </trkpt>
      <trkpt lat="44.8231" lon="0.67079">
        <ele>93</ele>
        <time>2014-04-10T13:22:20.000Z</time>
      </trkpt>
      <trkpt lat="44.8231" lon="0.67079">
        <ele>93</ele>
        <time>2014-04-10T13:22:26.000Z</time>
      </trkpt>
      <trkpt lat="44.8231" lon="0.67079">
        <ele>93</ele>
        <time>2014-04-10T13:22:30.000Z</time>
      </trkpt>
      <trkpt lat="44.82343" lon="0.67068">
        <ele>94</ele>
        <time>2014-04-10T13:23:07.000Z</time>
      </trkpt>
      <trkpt lat="44.82343" lon="0.67068">
        <ele>94</ele>
        <time>2014-04-10T13:23:09.000Z</time>
      </trkpt>
      <trkpt lat="44.82343" lon="0.67068">
        <ele>94</ele>
        <time>2014-04-10T13:23:11.000Z</time>
      </trkpt>
      <trkpt lat="44.82343" lon="0.67068">
        <ele>94</ele>
        <time>2014-04-10T13:23:13.000Z</time>
      </trkpt>
      <trkpt lat="44.82343" lon="0.67068">
        <ele>94</ele>
        <time>2014-04-10T13:23:15.000Z</time>
      </trkpt>
      <trkpt lat="44.82343" lon="0.67068">
        <ele>94</ele>
        <time>2014-04-10T13:23:17.000Z</time>
      </trkpt>
      <trkpt lat="44.82353" lon="0.67065">
        <ele>94</ele>
        <time>2014-04-10T13:23:24.000Z</time>
      </trkpt>
      <trkpt lat="44.82353" lon="0.67065">
        <ele>94</ele>
        <time>2014-04-10T13:23:25.000Z</time>
      </trkpt>
      <trkpt lat="44.82353" lon="0.67065">
        <ele>94</ele>
        <time>2014-04-10T13:23:27.000Z</time>
      </trkpt>
      <trkpt lat="44.8236" lon="0.67083">
        <ele>88</ele>
        <time>2014-04-10T13:23:36.000Z</time>
      </trkpt>
      <trkpt lat="44.8236" lon="0.67083">
        <ele>88</ele>
        <time>2014-04-10T13:23:44.000Z</time>
      </trkpt>
      <trkpt lat="44.8236" lon="0.67083">
        <ele>88</ele>
        <time>2014-04-10T13:23:46.000Z</time>
      </trkpt>
      <trkpt lat="44.8236" lon="0.67083">
        <ele>88</ele>
        <time>2014-04-10T13:23:48.000Z</time>
      </trkpt>
      <trkpt lat="44.8236" lon="0.67099">
        <ele>83</ele>
        <time>2014-04-10T13:23:54.000Z</time>
      </trkpt>
      <trkpt lat="44.8236" lon="0.67099">
        <ele>83</ele>
        <time>2014-04-10T13:24:02.000Z</time>
      </trkpt>
      <trkpt lat="44.8236" lon="0.67099">
        <ele>83</ele>
        <time>2014-04-10T13:24:04.000Z</time>
      </trkpt>
      <trkpt lat="44.8236" lon="0.67115">
        <ele>85</ele>
        <time>2014-04-10T13:24:12.000Z</time>
      </trkpt>
      <trkpt lat="44.8236" lon="0.67115">
        <ele>85</ele>
        <time>2014-04-10T13:24:20.000Z</time>
      </trkpt>
      <trkpt lat="44.8236" lon="0.67115">
        <ele>85</ele>
        <time>2014-04-10T13:24:22.000Z</time>
      </trkpt>
      <trkpt lat="44.82373" lon="0.67139">
        <ele>88</ele>
        <time>2014-04-10T13:25:16.000Z</time>
      </trkpt>
      <trkpt lat="44.82373" lon="0.67139">
        <ele>88</ele>
        <time>2014-04-10T13:25:18.000Z</time>
      </trkpt>
      <trkpt lat="44.82373" lon="0.67139">
        <ele>88</ele>
        <time>2014-04-10T13:25:20.000Z</time>
      </trkpt>
      <trkpt lat="44.82373" lon="0.67139">
        <ele>88</ele>
        <time>2014-04-10T13:25:22.000Z</time>
      </trkpt>
      <trkpt lat="44.82367" lon="0.67134">
        <ele>91</ele>
        <time>2014-04-10T13:25:33.000Z</time>
      </trkpt>
      <trkpt lat="44.82367" lon="0.67134">
        <ele>91</ele>
        <time>2014-04-10T13:25:35.000Z</time>
      </trkpt>
      <trkpt lat="44.82367" lon="0.67134">
        <ele>91</ele>
        <time>2014-04-10T13:25:37.000Z</time>
      </trkpt>
      <trkpt lat="44.82367" lon="0.67134">
        <ele>91</ele>
        <time>2014-04-10T13:25:39.000Z</time>
      </trkpt>
      <trkpt lat="44.82367" lon="0.67134">
        <ele>91</ele>
        <time>2014-04-10T13:25:41.000Z</time>
      </trkpt>
      <trkpt lat="44.82367" lon="0.67134">
        <ele>91</ele>
        <time>2014-04-10T13:25:43.000Z</time>
      </trkpt>
      <trkpt lat="44.82367" lon="0.67134">
        <ele>91</ele>
        <time>2014-04-10T13:25:45.000Z</time>
      </trkpt>
      <trkpt lat="44.82367" lon="0.67134">
        <ele>91</ele>
        <time>2014-04-10T13:25:47.000Z</time>
      </trkpt>
      <trkpt lat="44.82364" lon="0.67128">
        <ele>94</ele>
        <time>2014-04-10T13:28:46.000Z</time>
      </trkpt>
      <trkpt lat="44.82364" lon="0.67128">
        <ele>94</ele>
        <time>2014-04-10T13:28:50.000Z</time>
      </trkpt>
      <trkpt lat="44.82364" lon="0.67128">
        <ele>94</ele>
        <time>2014-04-10T13:28:52.000Z</time>
      </trkpt>
      <trkpt lat="44.8237" lon="0.67139">
        <ele>92</ele>
        <time>2014-04-10T13:29:49.000Z</time>
      </trkpt>
      <trkpt lat="44.82389" lon="0.67147">
        <ele>92</ele>
        <time>2014-04-10T13:30:28.000Z</time>
      </trkpt>
      <trkpt lat="44.82391" lon="0.67165">
        <ele>89</ele>
        <time>2014-04-10T13:30:44.000Z</time>
      </trkpt>
      <trkpt lat="44.82391" lon="0.67165">
        <ele>89</ele>
        <time>2014-04-10T13:30:48.000Z</time>
      </trkpt>
      <trkpt lat="44.82391" lon="0.67165">
        <ele>89</ele>
        <time>2014-04-10T13:30:58.000Z</time>
      </trkpt>
      <trkpt lat="44.82391" lon="0.67165">
        <ele>89</ele>
        <time>2014-04-10T13:31:00.000Z</time>
      </trkpt>
      <trkpt lat="44.82391" lon="0.67165">
        <ele>89</ele>
        <time>2014-04-10T13:31:03.000Z</time>
      </trkpt>
      <trkpt lat="44.82391" lon="0.6718">
        <ele>85</ele>
        <time>2014-04-10T13:31:04.000Z</time>
      </trkpt>
      <trkpt lat="44.82391" lon="0.6718">
        <ele>85</ele>
        <time>2014-04-10T13:31:06.000Z</time>
      </trkpt>
      <trkpt lat="44.82391" lon="0.6718">
        <ele>85</ele>
        <time>2014-04-10T13:31:08.000Z</time>
      </trkpt>
      <trkpt lat="44.82391" lon="0.6718">
        <ele>85</ele>
        <time>2014-04-10T13:31:10.000Z</time>
      </trkpt>
      <trkpt lat="44.82391" lon="0.6718">
        <ele>85</ele>
        <time>2014-04-10T13:31:12.000Z</time>
      </trkpt>
      <trkpt lat="44.82391" lon="0.6718">
        <ele>85</ele>
        <time>2014-04-10T13:31:14.000Z</time>
      </trkpt>
      <trkpt lat="44.82391" lon="0.6718">
        <ele>85</ele>
        <time>2014-04-10T13:31:18.000Z</time>
      </trkpt>
      <trkpt lat="44.82391" lon="0.6718">
        <ele>85</ele>
        <time>2014-04-10T13:31:20.000Z</time>
      </trkpt>
      <trkpt lat="44.82389" lon="0.67225">
        <ele>84</ele>
        <time>2014-04-10T13:32:11.000Z</time>
      </trkpt>
      <trkpt lat="44.82389" lon="0.67225">
        <ele>84</ele>
        <time>2014-04-10T13:32:13.000Z</time>
      </trkpt>
      <trkpt lat="44.82389" lon="0.67225">
        <ele>84</ele>
        <time>2014-04-10T13:32:23.000Z</time>
      </trkpt>
      <trkpt lat="44.82389" lon="0.67225">
        <ele>84</ele>
        <time>2014-04-10T13:32:27.000Z</time>
      </trkpt>
      <trkpt lat="44.82389" lon="0.67225">
        <ele>84</ele>
        <time>2014-04-10T13:32:29.000Z</time>
      </trkpt>
      <trkpt lat="44.82391" lon="0.67247">
        <ele>88</ele>
        <time>2014-04-10T13:33:13.000Z</time>
      </trkpt>
      <trkpt lat="44.82391" lon="0.67247">
        <ele>88</ele>
        <time>2014-04-10T13:33:23.000Z</time>
      </trkpt>
      <trkpt lat="44.82391" lon="0.67247">
        <ele>88</ele>
        <time>2014-04-10T13:33:25.000Z</time>
      </trkpt>
      <trkpt lat="44.8239" lon="0.67274">
        <ele>101</ele>
        <time>2014-04-10T13:34:02.000Z</time>
      </trkpt>
      <trkpt lat="44.8239" lon="0.67274">
        <ele>101</ele>
        <time>2014-04-10T13:34:04.000Z</time>
      </trkpt>
      <trkpt lat="44.8239" lon="0.67274">
        <ele>101</ele>
        <time>2014-04-10T13:34:06.000Z</time>
      </trkpt>
      <trkpt lat="44.82377" lon="0.67306">
        <ele>105</ele>
        <time>2014-04-10T13:34:45.000Z</time>
      </trkpt>
      <trkpt lat="44.82377" lon="0.67306">
        <ele>105</ele>
        <time>2014-04-10T13:35:01.000Z</time>
      </trkpt>
      <trkpt lat="44.82377" lon="0.67306">
        <ele>105</ele>
        <time>2014-04-10T13:35:03.000Z</time>
      </trkpt>
      <trkpt lat="44.82377" lon="0.67306">
        <ele>105</ele>
        <time>2014-04-10T13:35:07.000Z</time>
      </trkpt>
      <trkpt lat="44.82377" lon="0.67306">
        <ele>105</ele>
        <time>2014-04-10T13:35:09.000Z</time>
      </trkpt>
      <trkpt lat="44.82351" lon="0.67324">
        <ele>103</ele>
        <time>2014-04-10T13:36:15.000Z</time>
      </trkpt>
      <trkpt lat="44.82351" lon="0.67324">
        <ele>103</ele>
        <time>2014-04-10T13:36:19.000Z</time>
      </trkpt>
      <trkpt lat="44.82351" lon="0.67324">
        <ele>103</ele>
        <time>2014-04-10T13:36:21.000Z</time>
      </trkpt>
      <trkpt lat="44.82334" lon="0.67322">
        <ele>98</ele>
        <time>2014-04-10T13:36:48.000Z</time>
      </trkpt>
      <trkpt lat="44.82334" lon="0.67322">
        <ele>98</ele>
        <time>2014-04-10T13:36:52.000Z</time>
      </trkpt>
      <trkpt lat="44.82334" lon="0.67322">
        <ele>98</ele>
        <time>2014-04-10T13:36:54.000Z</time>
      </trkpt>
      <trkpt lat="44.82316" lon="0.67316">
        <ele>97</ele>
        <time>2014-04-10T13:37:16.000Z</time>
      </trkpt>
      <trkpt lat="44.82316" lon="0.67316">
        <ele>97</ele>
        <time>2014-04-10T13:37:18.000Z</time>
      </trkpt>
      <trkpt lat="44.82316" lon="0.67316">
        <ele>97</ele>
        <time>2014-04-10T13:37:22.000Z</time>
      </trkpt>
      <trkpt lat="44.82316" lon="0.67316">
        <ele>97</ele>
        <time>2014-04-10T13:37:24.000Z</time>
      </trkpt>
      <trkpt lat="44.82316" lon="0.67316">
        <ele>97</ele>
        <time>2014-04-10T13:37:26.000Z</time>
      </trkpt>
      <trkpt lat="44.82316" lon="0.67316">
        <ele>97</ele>
        <time>2014-04-10T13:37:28.000Z</time>
      </trkpt>
      <trkpt lat="44.82316" lon="0.67316">
        <ele>97</ele>
        <time>2014-04-10T13:37:36.000Z</time>
      </trkpt>
      <trkpt lat="44.82316" lon="0.67316">
        <ele>97</ele>
        <time>2014-04-10T13:37:56.000Z</time>
      </trkpt>
      <trkpt lat="44.82316" lon="0.67316">
        <ele>97</ele>
        <time>2014-04-10T13:38:06.000Z</time>
      </trkpt>
      <trkpt lat="44.82281" lon="0.67314">
        <ele>99</ele>
        <time>2014-04-10T13:38:13.000Z</time>
      </trkpt>
      <trkpt lat="44.82281" lon="0.67314">
        <ele>99</ele>
        <time>2014-04-10T13:38:15.000Z</time>
      </trkpt>
      <trkpt lat="44.82281" lon="0.67314">
        <ele>99</ele>
        <time>2014-04-10T13:38:21.000Z</time>
      </trkpt>
      <trkpt lat="44.82281" lon="0.67314">
        <ele>99</ele>
        <time>2014-04-10T13:38:23.000Z</time>
      </trkpt>
      <trkpt lat="44.82281" lon="0.67314">
        <ele>99</ele>
        <time>2014-04-10T13:38:39.000Z</time>
      </trkpt>
      <trkpt lat="44.82258" lon="0.67332">
        <ele>101</ele>
        <time>2014-04-10T13:38:56.000Z</time>
      </trkpt>
      <trkpt lat="44.82258" lon="0.67332">
        <ele>101</ele>
        <time>2014-04-10T13:39:00.000Z</time>
      </trkpt>
      <trkpt lat="44.82258" lon="0.67332">
        <ele>101</ele>
        <time>2014-04-10T13:39:04.000Z</time>
      </trkpt>
      <trkpt lat="44.82258" lon="0.67332">
        <ele>101</ele>
        <time>2014-04-10T13:39:06.000Z</time>
      </trkpt>
      <trkpt lat="44.82258" lon="0.67332">
        <ele>101</ele>
        <time>2014-04-10T13:39:08.000Z</time>
      </trkpt>
      <trkpt lat="44.82258" lon="0.67332">
        <ele>101</ele>
        <time>2014-04-10T13:39:12.000Z</time>
      </trkpt>
      <trkpt lat="44.82258" lon="0.67332">
        <ele>101</ele>
        <time>2014-04-10T13:39:14.000Z</time>
      </trkpt>
      <trkpt lat="44.82243" lon="0.6733">
        <ele>98</ele>
        <time>2014-04-10T13:39:39.000Z</time>
      </trkpt>
      <trkpt lat="44.82243" lon="0.6733">
        <ele>98</ele>
        <time>2014-04-10T13:39:41.000Z</time>
      </trkpt>
      <trkpt lat="44.82243" lon="0.6733">
        <ele>98</ele>
        <time>2014-04-10T13:39:43.000Z</time>
      </trkpt>
      <trkpt lat="44.82243" lon="0.6733">
        <ele>98</ele>
        <time>2014-04-10T13:39:47.000Z</time>
      </trkpt>
      <trkpt lat="44.82243" lon="0.6733">
        <ele>98</ele>
        <time>2014-04-10T13:39:49.000Z</time>
      </trkpt>
      <trkpt lat="44.82243" lon="0.6733">
        <ele>98</ele>
        <time>2014-04-10T13:39:51.000Z</time>
      </trkpt>
      <trkpt lat="44.82232" lon="0.67313">
        <ele>98</ele>
        <time>2014-04-10T13:40:24.000Z</time>
      </trkpt>
      <trkpt lat="44.82232" lon="0.67313">
        <ele>98</ele>
        <time>2014-04-10T13:40:26.000Z</time>
      </trkpt>
      <trkpt lat="44.82232" lon="0.67313">
        <ele>98</ele>
        <time>2014-04-10T13:40:28.000Z</time>
      </trkpt>
      <trkpt lat="44.82232" lon="0.67313">
        <ele>98</ele>
        <time>2014-04-10T13:40:34.000Z</time>
      </trkpt>
      <trkpt lat="44.82232" lon="0.67313">
        <ele>98</ele>
        <time>2014-04-10T13:40:36.000Z</time>
      </trkpt>
      <trkpt lat="44.82232" lon="0.67313">
        <ele>98</ele>
        <time>2014-04-10T13:40:38.000Z</time>
      </trkpt>
      <trkpt lat="44.82232" lon="0.67313">
        <ele>98</ele>
        <time>2014-04-10T13:40:44.000Z</time>
      </trkpt>
      <trkpt lat="44.82232" lon="0.67313">
        <ele>98</ele>
        <time>2014-04-10T13:40:46.000Z</time>
      </trkpt>
      <trkpt lat="44.82199" lon="0.67314">
        <ele>99</ele>
        <time>2014-04-10T13:41:02.000Z</time>
      </trkpt>
      <trkpt lat="44.82199" lon="0.67314">
        <ele>99</ele>
        <time>2014-04-10T13:41:04.000Z</time>
      </trkpt>
      <trkpt lat="44.82199" lon="0.67314">
        <ele>99</ele>
        <time>2014-04-10T13:41:06.000Z</time>
      </trkpt>
      <trkpt lat="44.82193" lon="0.67313">
        <ele>96</ele>
        <time>2014-04-10T13:41:25.000Z</time>
      </trkpt>
      <trkpt lat="44.8218" lon="0.67319">
        <ele>96</ele>
        <time>2014-04-10T13:41:39.000Z</time>
      </trkpt>
      <trkpt lat="44.8218" lon="0.67319">
        <ele>96</ele>
        <time>2014-04-10T13:41:47.000Z</time>
      </trkpt>
      <trkpt lat="44.8218" lon="0.67319">
        <ele>96</ele>
        <time>2014-04-10T13:41:49.000Z</time>
      </trkpt>
      <trkpt lat="44.8218" lon="0.67319">
        <ele>96</ele>
        <time>2014-04-10T13:41:51.000Z</time>
      </trkpt>
      <trkpt lat="44.82165" lon="0.67327">
        <ele>94</ele>
        <time>2014-04-10T13:41:55.000Z</time>
      </trkpt>
      <trkpt lat="44.82165" lon="0.67327">
        <ele>94</ele>
        <time>2014-04-10T13:42:05.000Z</time>
      </trkpt>
      <trkpt lat="44.82165" lon="0.67327">
        <ele>94</ele>
        <time>2014-04-10T13:42:07.000Z</time>
      </trkpt>
      <trkpt lat="44.82165" lon="0.67327">
        <ele>94</ele>
        <time>2014-04-10T13:42:11.000Z</time>
      </trkpt>
      <trkpt lat="44.82165" lon="0.67327">
        <ele>94</ele>
        <time>2014-04-10T13:42:13.000Z</time>
      </trkpt>
      <trkpt lat="44.82165" lon="0.67327">
        <ele>94</ele>
        <time>2014-04-10T13:42:15.000Z</time>
      </trkpt>
      <trkpt lat="44.82146" lon="0.67331">
        <ele>96</ele>
        <time>2014-04-10T13:42:19.000Z</time>
      </trkpt>
      <trkpt lat="44.82136" lon="0.67335">
        <ele>96</ele>
        <time>2014-04-10T13:42:31.000Z</time>
      </trkpt>
      <trkpt lat="44.82136" lon="0.67335">
        <ele>96</ele>
        <time>2014-04-10T13:42:33.000Z</time>
      </trkpt>
      <trkpt lat="44.82136" lon="0.67335">
        <ele>96</ele>
        <time>2014-04-10T13:42:35.000Z</time>
      </trkpt>
      <trkpt lat="44.82136" lon="0.67335">
        <ele>96</ele>
        <time>2014-04-10T13:42:37.000Z</time>
      </trkpt>
      <trkpt lat="44.82136" lon="0.67335">
        <ele>96</ele>
        <time>2014-04-10T13:42:39.000Z</time>
      </trkpt>
      <trkpt lat="44.82136" lon="0.67335">
        <ele>96</ele>
        <time>2014-04-10T13:42:41.000Z</time>
      </trkpt>
      <trkpt lat="44.82129" lon="0.67337">
        <ele>97</ele>
        <time>2014-04-10T13:42:45.000Z</time>
      </trkpt>
      <trkpt lat="44.82129" lon="0.67337">
        <ele>97</ele>
        <time>2014-04-10T13:42:47.000Z</time>
      </trkpt>
      <trkpt lat="44.82124" lon="0.67339">
        <ele>98</ele>
        <time>2014-04-10T13:42:49.000Z</time>
      </trkpt>
      <trkpt lat="44.82124" lon="0.67339">
        <ele>98</ele>
        <time>2014-04-10T13:42:51.000Z</time>
      </trkpt>
      <trkpt lat="44.82119" lon="0.67342">
        <ele>99</ele>
        <time>2014-04-10T13:42:53.000Z</time>
      </trkpt>
      <trkpt lat="44.82119" lon="0.67342">
        <ele>99</ele>
        <time>2014-04-10T13:42:55.000Z</time>
      </trkpt>
      <trkpt lat="44.82115" lon="0.67345">
        <ele>98</ele>
        <time>2014-04-10T13:42:59.000Z</time>
      </trkpt>
      <trkpt lat="44.8211" lon="0.67346">
        <ele>98</ele>
        <time>2014-04-10T13:43:03.000Z</time>
      </trkpt>
      <trkpt lat="44.8211" lon="0.67346">
        <ele>98</ele>
        <time>2014-04-10T13:43:05.000Z</time>
      </trkpt>
      <trkpt lat="44.8211" lon="0.67346">
        <ele>98</ele>
        <time>2014-04-10T13:43:07.000Z</time>
      </trkpt>
      <trkpt lat="44.8211" lon="0.67346">
        <ele>98</ele>
        <time>2014-04-10T13:43:09.000Z</time>
      </trkpt>
      <trkpt lat="44.82102" lon="0.67348">
        <ele>102</ele>
        <time>2014-04-10T13:43:15.000Z</time>
      </trkpt>
      <trkpt lat="44.82102" lon="0.67348">
        <ele>102</ele>
        <time>2014-04-10T13:43:17.000Z</time>
      </trkpt>
      <trkpt lat="44.82102" lon="0.67348">
        <ele>102</ele>
        <time>2014-04-10T13:43:19.000Z</time>
      </trkpt>
      <trkpt lat="44.82102" lon="0.67348">
        <ele>102</ele>
        <time>2014-04-10T13:43:21.000Z</time>
      </trkpt>
      <trkpt lat="44.82102" lon="0.67348">
        <ele>102</ele>
        <time>2014-04-10T13:43:23.000Z</time>
      </trkpt>
      <trkpt lat="44.82102" lon="0.67348">
        <ele>102</ele>
        <time>2014-04-10T13:43:25.000Z</time>
      </trkpt>
      <trkpt lat="44.82091" lon="0.67351">
        <ele>101</ele>
        <time>2014-04-10T13:43:35.000Z</time>
      </trkpt>
      <trkpt lat="44.82084" lon="0.67353">
        <ele>99</ele>
        <time>2014-04-10T13:43:37.000Z</time>
      </trkpt>
      <trkpt lat="44.8208" lon="0.67355">
        <ele>97</ele>
        <time>2014-04-10T13:43:41.000Z</time>
      </trkpt>
      <trkpt lat="44.8208" lon="0.67355">
        <ele>97</ele>
        <time>2014-04-10T13:43:45.000Z</time>
      </trkpt>
      <trkpt lat="44.8208" lon="0.67355">
        <ele>97</ele>
        <time>2014-04-10T13:43:47.000Z</time>
      </trkpt>
      <trkpt lat="44.8208" lon="0.67355">
        <ele>97</ele>
        <time>2014-04-10T13:43:49.000Z</time>
      </trkpt>
      <trkpt lat="44.8208" lon="0.67355">
        <ele>97</ele>
        <time>2014-04-10T13:43:55.000Z</time>
      </trkpt>
      <trkpt lat="44.8208" lon="0.67355">
        <ele>97</ele>
        <time>2014-04-10T13:43:57.000Z</time>
      </trkpt>
      <trkpt lat="44.8208" lon="0.67355">
        <ele>97</ele>
        <time>2014-04-10T13:44:09.000Z</time>
      </trkpt>
    </trkseg>
  </trk>
</gpx>